Cazenovia, NY (13035)

8:15 PM EDT on August 27, 2015 (GMT -0400)
Fenner | | Change Station
CLOSE
Current Station
Personal Weather Station
Location: Cazenovia, NY
Elevation: 1389 ft
Nearby Weather Stations

Elev 1389 ft 42.97 °N, 75.81 °W | Updated 16 minutes ago

Overcast
Overcast
59.3 °F
Feels Like 59.3 °F
N
0.0
Wind Variable Wind from North
Gusts 0.0 mph

Today
High -- | Low -- °F
--% Chance of Precip.
Yesterday
High -- | Low -- °F
Precip. -- in
6:22 AM 7:46 PM
Waxing Gibbous, 95% visible
Pressure 30.12 in
Visibility 10.0 miles
Clouds Few 4000 ft
Scattered Clouds 5000 ft
Dew Point 52 °F
Humidity 78%
Rainfall 0.05 in
Snow Depth Not available.
UV 16.0 out of 12
Pollen 8.50 out of 12
Air Quality Not available.
Flu Activity Not available.
METAR KSYR 272354Z 27004KT 10SM FEW040 SCT050 17/13 A3012 RMK AO2 SLP197 SCT V FEW T01670128 10211 20167 51008
Pressure 30.12 in
Visibility 10.0 miles
Clouds Few 4000 ft
Scattered Clouds 5000 ft
Dew Point 52 °F
Humidity 78%
Rainfall 0.05 in
Snow Depth Not available.
UV 16.0 out of 12
Pollen 8.50 out of 12
Air Quality Not available.
Flu Activity Not available.
METAR KSYR 272354Z 27004KT 10SM FEW040 SCT050 17/13 A3012 RMK AO2 SLP197 SCT V FEW T01670128 10211 20167 51008

10-Day Weather Forecast

×

Almanac

Astronomy

Aug. 27, 2015 Rise Set
Actual Time
Civil Twilight
Nautical Twilight
Astronomical Twilight
Moon
Length of Visible Light
Length of Day
Tomorrow will be .
, % of the Moon is Illuminated

Today's Extremes

State Highs State Lows

Community

WunderPhotos

Upload Photos

1,850,272 photos uploaded!

WunderBlogs® & News

Nearby

Air Quality

  Air Quality AQ Index Pollutant
Not available.

Snow Depth

Station Depth Elevation

Earthquake Activity

City Distance Mag. Time & Date
Minimum magnitude displayed is 2.5.

Coastal Water Temperatures

Place Temperature

Stations

Nearby Weather Stations

Station Location Temp. Windchill Dew Point Humidity Wind Precip. Elev Updated Type